Time;durP1;ratioP1;P1;durP2;ratioP2;P2;SDS_P1;SDS_P2;PMS_P1;PMS_P2;Temp;Humidity;BMP_temperature;BMP_pressure;BME280_temperature;BME280_humidity;BME280_pressure;Samples;Min_cycle;Max_cycle;Signal;HPM_P1;HPM_P2
2023/10/09 00:02:45;;;;;;;5.93;1.75;;;;;;;9.10;74.46;101372.16;5576598;31;33835;-66
2023/10/09 00:05:52;;;;;;;2.78;1.50;;;;;;;9.07;74.89;101384.81;5590673;31;33934;-65
2023/10/09 00:08:56;;;;;;;4.18;1.58;;;;;;;9.08;75.38;101392.63;5590219;31;34128;-65
2023/10/09 00:12:00;;;;;;;4.07;1.45;;;;;;;9.19;71.51;101375.81;5590199;31;33762;-65
2023/10/09 00:15:07;;;;;;;2.62;1.45;;;;;;;9.33;69.26;101359.56;5590250;31;34508;-65
2023/10/09 00:18:12;;;;;;;2.80;1.52;;;;;;;9.30;71.71;101361.59;5590250;31;33956;-66
2023/10/09 00:21:16;;;;;;;3.22;1.83;;;;;;;9.33;69.36;101364.00;5590279;31;33894;-66
2023/10/09 00:24:25;;;;;;;4.12;1.87;;;;;;;9.28;72.07;101371.53;5590627;31;33951;-66
2023/10/09 00:27:31;;;;;;;3.85;1.70;;;;;;;9.30;72.00;101385.44;5590118;31;33790;-66
2023/10/09 00:30:35;;;;;;;2.60;1.50;;;;;;;9.40;70.05;101373.06;5589970;31;34588;-65
2023/10/09 00:33:38;;;;;;;3.08;1.75;;;;;;;9.59;67.92;101366.00;5589986;31;34530;-65
2023/10/09 00:36:50;;;;;;;4.28;1.70;;;;;;;9.61;69.88;101360.56;5576234;31;33891;-66
2023/10/09 00:39:56;;;;;;;5.65;1.98;;;;;;;9.56;71.05;101353.03;5590351;31;34960;-66
2023/10/09 00:43:06;;;;;;;3.03;1.70;;;;;;;9.71;67.14;101347.31;5589895;31;34522;-66
2023/10/09 00:46:23;;;;;;;3.25;1.62;;;;;;;9.62;67.85;101338.41;5576082;31;33768;-66
2023/10/09 00:49:27;;;;;;;3.65;1.75;;;;;;;9.57;67.27;101351.22;5590002;31;34171;-65
2023/10/09 00:52:43;;;;;;;3.20;1.70;;;;;;;9.65;66.83;101351.38;5589981;31;33793;-66
2023/10/09 00:55:55;;;;;;;4.87;1.70;;;;;;;9.68;65.58;101347.62;5590317;31;34255;-65
2023/10/09 00:59:10;;;;;;;4.85;1.70;;;;;;;9.76;64.58;101361.00;5590262;31;33839;-65
2023/10/09 01:02:18;;;;;;;4.20;1.52;;;;;;;9.78;64.42;101348.47;5589866;31;33806;-65
2023/10/09 01:05:21;;;;;;;2.20;1.23;;;;;;;9.80;64.45;101352.63;5589930;31;33915;-65
2023/10/09 01:11:34;;;;;;;4.80;1.60;;;;;;;10.07;65.17;101354.56;5589723;31;34035;-66
2023/10/09 01:14:37;;;;;;;2.97;1.67;;;;;;;9.91;69.39;101344.56;5589703;31;34557;-65
2023/10/09 01:17:45;;;;;;;5.30;1.50;;;;;;;9.87;68.30;101352.94;5589714;31;33842;-65
2023/10/09 01:20:49;;;;;;;2.58;1.40;;;;;;;9.83;66.50;101344.41;5590043;31;33797;-66
2023/10/09 01:24:06;;;;;;;3.30;1.45;;;;;;;9.81;66.34;101350.81;5590017;31;34018;-66
2023/10/09 01:27:14;;;;;;;6.22;1.67;;;;;;;9.91;65.92;101351.66;5589624;31;33933;-65
2023/10/09 01:30:20;;;;;;;4.18;1.67;;;;;;;10.06;68.64;101358.22;5589460;31;34937;-66
2023/10/09 01:33:27;;;;;;;4.35;1.58;;;;;;;9.91;68.68;101352.50;5589517;31;34406;-65
2023/10/09 01:36:33;;;;;;;3.65;1.42;;;;;;;9.95;64.03;101345.09;5589675;31;34021;-66
2023/10/09 01:39:41;;;;;;;2.22;1.30;;;;;;;10.11;67.07;101358.63;5589532;31;33853;-65
2023/10/09 01:42:46;;;;;;;3.10;1.50;;;;;;;10.00;71.03;101353.47;5589412;31;34648;-66
2023/10/09 01:45:51;;;;;;;5.15;1.60;;;;;;;10.17;68.05;101346.63;5589605;31;33832;-65
2023/10/09 01:48:54;;;;;;;2.92;1.65;;;;;;;10.11;63.50;101349.84;5588818;31;33975;-66
2023/10/09 01:52:01;;;;;;;3.75;1.50;;;;;;;10.18;63.63;101357.09;5589349;31;34795;-65
2023/10/09 01:55:15;;;;;;;3.10;1.70;;;;;;;10.09;66.05;101357.09;5589438;31;33860;-65
2023/10/09 02:01:23;;;;;;;5.65;1.67;;;;;;;10.16;65.73;101364.38;5589257;31;33894;-65
2023/10/09 02:04:26;;;;;;;3.83;1.70;;;;;;;10.22;61.99;101370.91;5589239;31;34584;-65
2023/10/09 02:07:40;;;;;;;4.00;1.80;;;;;;;10.27;62.47;101368.69;5589203;31;33930;-65
2023/10/09 02:10:47;;;;;;;4.37;1.87;;;;;;;10.17;64.18;101376.63;5589258;31;33900;-65
2023/10/09 02:13:55;;;;;;;2.60;1.45;;;;;;;10.14;60.69;101365.47;5589001;31;34737;-66
2023/10/09 02:17:17;;;;;;;3.80;1.80;;;;;;;10.15;64.54;101356.53;5589464;31;33904;-65
2023/10/09 02:20:28;;;;;;;3.45;1.95;;;;;;;10.15;66.54;101362.69;5575328;31;33954;-65
2023/10/09 02:23:50;;;;;;;;;;;;;;;10.21;64.67;101371.91;5576503;31;33805;-65
2023/10/09 02:29:58;;;;;;;5.93;2.35;;;;;;;10.19;64.91;101350.00;5588873;31;33890;-66
2023/10/09 02:33:08;;;;;;;5.03;2.65;;;;;;;10.18;64.89;101345.66;5575117;31;33775;-65
2023/10/09 02:36:12;;;;;;;5.75;2.10;;;;;;;10.22;66.56;101337.28;5588876;31;33732;-65
2023/10/09 02:40:04;;;;;;;5.72;2.17;;;;;;;10.10;69.36;101333.09;5589231;31;34057;-67
2023/10/09 02:42:43;;;;;;;3.58;1.90;;;;;;;10.06;94.31;101341.47;5584388;31;34404;-65
2023/10/09 02:45:50;;;;;;;5.85;2.00;;;;;;;9.88;86.63;101322.78;5588899;31;35046;-65
2023/10/09 02:48:53;;;;;;;4.22;1.85;;;;;;;9.81;79.30;101319.03;5588625;31;33820;-65
2023/10/09 02:51:56;;;;;;;3.65;1.85;;;;;;;9.87;73.45;101311.34;5588598;31;34760;-65
2023/10/09 02:54:59;;;;;;;3.67;1.77;;;;;;;9.89;76.71;101319.16;5588876;31;33931;-65
2023/10/09 02:58:07;;;;;;;6.10;1.65;;;;;;;9.85;67.59;101301.87;5588558;31;34906;-65
2023/10/09 03:01:15;;;;;;;5.70;1.73;;;;;;;9.92;67.81;101308.28;5590288;31;33916;-65
2023/10/09 03:04:19;;;;;;;2.85;1.60;;;;;;;9.99;66.61;101310.22;5590836;31;33906;-65
2023/10/09 03:07:23;;;;;;;4.82;1.80;;;;;;;10.03;66.28;101308.94;5591267;31;33879;-65
2023/10/09 03:10:26;;;;;;;4.78;1.60;;;;;;;10.15;68.84;101296.38;5590908;31;33902;-65
2023/10/09 03:13:33;;;;;;;5.45;1.58;;;;;;;10.08;68.66;101284.66;5590760;31;33840;-65
2023/10/09 03:16:36;;;;;;;4.37;1.75;;;;;;;10.07;68.55;101292.78;5590630;31;34676;-65
2023/10/09 03:19:39;;;;;;;4.22;1.90;;;;;;;10.18;71.26;101312.03;5590766;31;34472;-65
2023/10/09 03:22:47;;;;;;;7.28;2.03;;;;;;;10.15;73.75;101303.50;5591069;31;34510;-65
2023/10/09 03:25:51;;;;;;;3.78;1.90;;;;;;;10.18;75.13;101292.62;5590808;31;33945;-65
2023/10/09 03:28:54;;;;;;;4.97;1.75;;;;;;;10.17;76.76;101297.09;5590532;31;33838;-65
2023/10/09 03:31:56;;;;;;;8.48;2.00;;;;;;;10.15;77.33;101307.00;5590710;31;33777;-65
2023/10/09 03:35:00;;;;;;;4.32;2.00;;;;;;;10.17;79.80;101297.09;5590408;31;33776;-65
2023/10/09 03:38:12;;;;;;;7.90;2.17;;;;;;;10.23;78.05;101309.78;5590835;31;33817;-66
2023/10/09 03:41:17;;;;;;;4.75;1.95;;;;;;;10.26;75.45;101306.84;5590447;31;34835;-66
2023/10/09 03:44:20;;;;;;;5.55;2.15;;;;;;;10.26;73.86;101321.94;5576432;31;33869;-65
2023/10/09 03:47:24;;;;;;;5.00;2.12;;;;;;;10.29;70.86;101305.72;5576516;31;34339;-66
2023/10/09 03:50:35;;;;;;;5.05;2.03;;;;;;;10.29;75.74;101301.28;5576859;31;34015;-67
2023/10/09 03:53:39;;;;;;;4.00;1.83;;;;;;;10.30;71.03;101291.50;5590639;31;33995;-65
2023/10/09 03:56:42;;;;;;;6.25;2.20;;;;;;;10.38;75.06;101296.91;5590350;31;33832;-65
2023/10/09 03:59:51;;;;;;;3.90;1.90;;;;;;;10.28;77.31;101298.75;5590579;31;33909;-65
2023/10/09 04:02:57;;;;;;;4.82;2.22;;;;;;;10.21;77.38;101289.72;5590286;31;33866;-65
2023/10/09 04:06:00;;;;;;;3.42;1.90;;;;;;;10.16;74.64;101290.16;5590344;31;33892;-65
2023/10/09 04:12:25;;;;;;;4.40;1.90;;;;;;;10.19;73.30;101281.88;5589822;31;34024;-65
2023/10/09 04:15:30;;;;;;;9.07;2.10;;;;;;;10.15;67.05;101293.72;5590132;31;33943;-66
2023/10/09 04:18:38;;;;;;;3.42;1.67;;;;;;;10.09;67.45;101296.09;5590092;31;33982;-65
2023/10/09 04:21:41;;;;;;;4.40;1.67;;;;;;;10.11;67.21;101283.56;5590092;31;33993;-66
2023/10/09 04:24:48;;;;;;;3.67;1.60;;;;;;;10.25;66.07;101294.59;5590234;31;34537;-65
2023/10/09 04:28:22;;;;;;;6.62;1.92;;;;;;;10.24;61.94;101292.06;5590104;31;33950;-66
2023/10/09 04:31:27;;;;;;;3.47;1.70;;;;;;;10.24;62.00;101279.66;5590015;31;33902;-64
2023/10/09 04:34:48;;;;;;;3.40;1.58;;;;;;;10.18;62.30;101266.94;5590043;31;33763;-66
2023/10/09 04:38:05;;;;;;;3.40;1.60;;;;;;;10.20;61.10;101285.38;5589851;31;33912;-65
2023/10/09 04:41:09;;;;;;;5.18;1.87;;;;;;;10.14;60.53;101270.00;5590063;31;33760;-66
2023/10/09 04:47:25;;;;;;;5.57;1.75;;;;;;;10.32;60.59;101265.66;5589762;31;33786;-65
2023/10/09 04:53:43;;;;;;;8.23;2.17;;;;;;;10.34;59.72;101261.06;5589871;31;33853;-65
2023/10/09 04:56:53;;;;;;;6.47;1.52;;;;;;;10.40;60.22;101274.59;5589963;31;33814;-66
2023/10/09 04:59:58;;;;;;;4.55;1.98;;;;;;;10.34;59.76;101264.53;5590056;31;33715;-65
2023/10/09 05:03:13;;;;;;;6.10;1.70;;;;;;;10.41;61.29;101254.16;5589671;31;34529;-65
2023/10/09 05:06:42;;;;;;;5.95;2.00;;;;;;;10.51;60.97;101248.81;5589632;31;33973;-65
2023/10/09 05:10:08;;;;;;;4.78;1.90;;;;;;;10.47;62.39;101245.62;5589563;31;34588;-65
2023/10/09 05:13:13;;;;;;;4.35;1.77;;;;;;;10.44;60.19;101237.97;5589962;31;33851;-65
2023/10/09 05:16:18;;;;;;;5.43;2.22;;;;;;;10.43;58.13;101237.16;5589528;31;33862;-67
2023/10/09 05:19:29;;;;;;;6.85;1.55;;;;;;;10.41;58.16;101254.16;5589400;31;33804;-66
2023/10/09 05:22:38;;;;;;;4.85;1.90;;;;;;;10.46;57.77;101246.63;5588842;31;34074;-66
2023/10/09 05:25:58;;;;;;;4.07;1.80;;;;;;;10.40;56.74;101240.09;5588972;31;33866;-66
2023/10/09 05:29:18;;;;;;;6.87;2.00;;;;;;;10.34;57.43;101235.38;5589725;31;33931;-66
2023/10/09 05:32:29;;;;;;;6.50;2.00;;;;;;;10.45;58.78;101221.94;5589556;31;34528;-66
2023/10/09 05:35:59;;;;;;;6.50;1.80;;;;;;;10.57;59.19;101225.22;5576084;31;33820;-66
2023/10/09 05:42:29;;;;;;;4.60;1.83;;;;;;;10.51;56.55;101247.00;5589494;31;34454;-66
2023/10/09 05:48:54;;;;;;;5.05;1.98;;;;;;;10.50;56.56;101279.84;5577554;31;33949;-67
2023/10/09 05:52:32;;;;;;;5.80;1.80;;;;;;;10.52;56.08;101285.00;5588863;31;34169;-66
2023/10/09 06:01:06;;;;;;;4.03;2.00;;;;;;;10.53;54.76;101231.78;5589264;31;34073;-66
2023/10/09 06:03:23;;;;;;;5.35;2.10;;;;;;;10.64;56.60;101228.97;5588923;31;34299;-66
2023/10/09 06:09:10;;;;;;;5.12;1.80;;;;;;;10.70;54.20;101246.09;5588439;31;34487;-65
2023/10/09 06:15:51;;;;;;;7.05;1.83;;;;;;;10.85;53.48;101223.37;5588885;31;33777;-64
2023/10/09 06:19:07;;;;;;;6.17;1.67;;;;;;;10.88;52.54;101218.62;5588997;31;34869;-65
2023/10/09 06:25:39;;;;;;;3.78;1.50;;;;;;;10.87;51.67;101203.69;5588516;31;33808;-66
2023/10/09 06:28:49;;;;;;;9.77;1.87;;;;;;;10.93;52.31;101188.97;5588500;31;34783;-66
2023/10/09 06:32:15;;;;;;;7.70;1.90;;;;;;;10.98;51.18;101199.13;5588669;31;33807;-66
2023/10/09 06:35:21;;;;;;;7.37;2.10;;;;;;;11.04;50.72;101214.44;5588359;31;33884;-65
2023/10/09 06:38:33;;;;;;;5.60;2.00;;;;;;;11.08;50.72;101210.53;5588628;31;34966;-65
2023/10/09 06:41:45;;;;;;;6.45;1.75;;;;;;;11.10;51.30;101214.69;5588556;31;33859;-65
2023/10/09 06:44:54;;;;;;;6.78;1.90;;;;;;;11.23;52.24;101219.66;5588269;31;34528;-65
2023/10/09 06:48:07;;;;;;;3.53;1.55;;;;;;;11.25;50.86;101215.84;5588475;31;33873;-65
2023/10/09 06:51:40;;;;;;;4.97;1.60;;;;;;;11.20;49.62;101211.97;5574208;31;34239;-66
2023/10/09 06:54:40;;;;;;;5.18;1.60;;;;;;;11.27;49.93;101208.56;5588354;31;33873;-65
2023/10/09 06:57:48;;;;;;;5.18;1.60;;;;;;;11.31;49.18;101204.62;5588181;31;33722;-66
2023/10/09 07:04:18;;;;;;;4.97;2.05;;;;;;;11.34;47.84;101192.84;5588190;31;33804;-65
2023/10/09 07:07:24;;;;;;;9.13;1.60;;;;;;;11.44;48.19;101190.09;5588230;31;33880;-66
2023/10/09 07:10:38;;;;;;;6.03;1.83;;;;;;;11.46;47.80;101183.66;5588438;31;34418;-66
2023/10/09 07:13:41;;;;;;;8.10;1.62;;;;;;;11.47;47.56;101181.84;5588350;31;33920;-66
2023/10/09 07:20:12;;;;;;;4.97;1.65;;;;;;;11.48;47.19;101184.31;5588017;31;32553;-65
2023/10/09 07:23:15;;;;;;;6.97;1.77;;;;;;;11.61;46.72;101173.31;5588005;31;33876;-66
2023/10/09 07:26:18;;;;;;;6.53;1.75;;;;;;;11.67;47.68;101162.87;5587791;31;34887;-65
2023/10/09 07:29:22;;;;;;;6.40;1.62;;;;;;;11.71;46.99;101150.12;5587361;31;34061;-64
2023/10/09 07:32:27;;;;;;;6.95;1.75;;;;;;;11.61;46.30;101120.16;5587563;31;34938;-65
2023/10/09 07:38:55;;;;;;;9.93;2.00;;;;;;;12.00;46.18;101105.44;5587719;31;33809;-66
2023/10/09 07:48:25;;;;;;;9.13;1.52;;;;;;;12.90;44.67;101082.56;5589603;31;34006;-66
2023/10/09 07:51:31;;;;;;;11.45;1.58;;;;;;;13.66;42.22;101074.16;5590336;31;35012;-66
2023/10/09 07:54:49;;;;;;;8.35;1.77;;;;;;;14.14;42.42;101091.84;5589593;31;33790;-67
2023/10/09 07:57:53;;;;;;;9.55;1.73;;;;;;;13.49;42.35;101092.88;5590218;31;34526;-66
2023/10/09 08:01:06;;;;;;;9.05;1.52;;;;;;;13.03;43.37;101093.53;5590243;31;33815;-66
2023/10/09 08:04:13;;;;;;;7.90;1.87;;;;;;;13.27;45.00;101090.91;5590128;31;34045;-66
2023/10/09 08:07:25;;;;;;;5.93;1.77;;;;;;;13.04;43.38;101097.87;5590114;31;33745;-65
2023/10/09 08:17:37;;;;;;;8.50;1.55;;;;;;;12.00;44.84;101075.38;5589771;31;34505;-65
2023/10/09 08:24:04;;;;;;;9.38;1.62;;;;;;;11.83;46.08;101058.50;5590433;31;33859;-65
2023/10/09 08:27:37;;;;;;;10.73;2.03;;;;;;;11.76;45.71;101052.97;5589983;31;33797;-66
2023/10/09 08:30:49;;;;;;;5.55;1.52;;;;;;;11.80;46.28;101061.47;5589387;31;34558;-68
2023/10/09 08:33:57;;;;;;;6.55;1.70;;;;;;;11.93;46.85;101053.06;5589964;31;33789;-66
2023/10/09 08:37:04;;;;;;;4.60;1.60;;;;;;;11.97;45.09;101065.03;5590008;31;34995;-66
2023/10/09 08:40:09;;;;;;;7.00;1.58;;;;;;;11.89;45.54;101055.19;5589723;31;34819;-69
2023/10/09 08:43:17;;;;;;;5.30;1.85;;;;;;;11.96;47.28;101045.56;5589625;31;33804;-66
2023/10/09 08:46:26;;;;;;;5.45;1.60;;;;;;;12.27;46.21;101031.72;5575377;31;33334;-66
2023/10/09 08:49:33;;;;;;;23.25;2.35;;;;;;;12.45;45.23;101037.72;5589630;31;34408;-66
2023/10/09 08:52:37;;;;;;;4.28;1.40;;;;;;;12.56;46.84;101040.91;5589778;31;33936;-66
2023/10/09 08:55:41;;;;;;;6.78;1.73;;;;;;;12.53;45.57;101035.94;5589455;31;33949;-66
2023/10/09 08:58:44;;;;;;;15.23;1.92;;;;;;;12.54;44.31;101048.22;5589162;31;33927;-66
2023/10/09 09:01:52;;;;;;;15.38;2.35;;;;;;;12.73;45.65;101039.09;5589839;31;34511;-65
2023/10/09 09:04:55;;;;;;;9.80;1.90;;;;;;;12.84;46.19;101028.12;5589829;31;33891;-66
2023/10/09 09:07:59;;;;;;;12.37;2.05;;;;;;;12.96;45.92;101007.31;5588961;31;34099;-66
2023/10/09 09:11:18;;;;;;;7.10;2.30;;;;;;;12.91;44.13;101001.66;5589184;31;35590;-65
2023/10/09 09:14:38;;;;;;;34.55;2.78;;;;;;;12.75;43.70;100999.84;5589710;31;33808;-66
2023/10/09 09:17:42;;;;;;;;;;;;;;;13.14;43.73;101004.50;5590119;31;34441;-66
2023/10/09 09:20:53;;;;;;;19.23;2.28;;;;;;;13.08;43.96;101008.62;5589646;31;34811;-65
2023/10/09 09:24:00;;;;;;;15.27;2.20;;;;;;;13.46;44.39;101001.75;5589546;31;33420;-65
2023/10/09 09:27:31;;;;;;;10.45;2.00;;;;;;;13.80;43.33;101001.44;5589369;31;33793;-66
2023/10/09 09:30:35;;;;;;;;;;;;;;;13.92;42.18;101003.56;5589581;31;33819;-66
2023/10/09 09:33:42;;;;;;;355.75;17.02;;;;;;;14.21;42.09;100989.56;5589217;31;34163;-67
2023/10/09 09:37:18;;;;;;;7.50;1.60;;;;;;;14.03;42.40;100991.69;5589353;31;33885;-66
2023/10/09 09:40:30;;;;;;;7.25;1.40;;;;;;;13.61;41.36;100986.69;5589509;31;34710;-66
2023/10/09 09:43:40;;;;;;;6.65;1.48;;;;;;;13.86;41.37;101001.59;5589400;31;34406;-67
2023/10/09 09:46:45;;;;;;;10.35;1.70;;;;;;;13.85;40.71;100988.44;5589077;31;34371;-65
2023/10/09 09:49:50;;;;;;;7.10;1.45;;;;;;;13.90;40.98;100981.56;5589051;31;33828;-67
2023/10/09 09:52:54;;;;;;;12.80;1.70;;;;;;;14.22;40.29;100977.06;5575724;31;34510;-66
2023/10/09 09:55:57;;;;;;;9.70;1.50;;;;;;;14.12;40.70;100979.13;5589159;31;34512;-66
2023/10/09 09:59:06;;;;;;;6.37;1.55;;;;;;;14.36;40.26;100981.66;5577851;31;33943;-66
2023/10/09 10:02:20;;;;;;;10.38;1.87;;;;;;;14.95;40.98;100980.03;5589349;31;34331;-66
2023/10/09 10:05:29;;;;;;;10.15;1.67;;;;;;;14.82;40.42;100969.09;5590053;31;34115;-66
2023/10/09 10:08:32;;;;;;;8.07;1.87;;;;;;;14.86;39.86;100972.25;5588994;31;33808;-66
2023/10/09 10:11:51;;;;;;;3.40;1.40;;;;;;;15.32;40.91;100965.75;5574713;31;34144;-66
2023/10/09 10:14:59;;;;;;;6.32;1.70;;;;;;;15.19;38.85;100925.50;5576226;31;33975;-66
2023/10/09 10:18:07;;;;;;;7.50;1.62;;;;;;;15.47;38.74;100898.91;5588771;31;33873;-66
2023/10/09 10:21:18;;;;;;;7.45;1.70;;;;;;;14.95;40.01;100851.78;5589308;31;33807;-67
2023/10/09 10:25:32;;;;;;;6.50;1.60;;;;;;;15.10;41.78;100868.59;5589305;31;34115;-68
2023/10/09 10:28:34;;;;;;;5.85;1.40;;;;;;;15.28;39.63;100864.72;5581708;31;34523;-66
2023/10/09 10:31:52;;;;;;;6.45;1.92;;;;;;;15.24;39.42;100864.28;5588889;31;33791;-66
2023/10/09 10:34:57;;;;;;;8.95;2.35;;;;;;;14.80;40.37;100842.94;5588801;31;34515;-66
2023/10/09 10:41:16;;;;;;;9.20;2.80;;;;;;;14.74;41.94;100804.44;5588607;31;34784;-66
2023/10/09 10:44:38;;;;;;;7.43;2.50;;;;;;;14.52;41.05;100807.19;5588504;31;34174;-67
2023/10/09 10:47:41;;;;;;;10.70;2.25;;;;;;;14.75;40.31;100816.78;5588302;31;34009;-66
2023/10/09 10:50:45;;;;;;;7.07;1.90;;;;;;;14.84;39.74;100797.97;5588305;31;34574;-69
2023/10/09 10:53:57;;;;;;;13.25;2.22;;;;;;;14.96;39.50;100765.25;5575078;31;34520;-65
2023/10/09 10:57:00;;;;;;;13.18;1.98;;;;;;;15.00;41.25;100773.75;5588228;31;34008;-65
2023/10/09 11:01:11;;;;;;;11.80;1.98;;;;;;;15.93;38.83;100793.25;5588429;31;33964;-65
2023/10/09 11:03:56;;;;;;;9.57;1.85;;;;;;;18.47;35.22;100803.56;5588272;31;34163;-66
2023/10/09 11:07:10;;;;;;;5.20;1.80;;;;;;;21.11;30.54;100800.78;5587988;31;34449;-66
2023/10/09 11:10:26;;;;;;;6.35;1.87;;;;;;;21.31;29.87;100799.75;5588288;31;34536;-66
2023/10/09 11:13:30;;;;;;;7.15;1.60;;;;;;;23.60;27.51;100810.31;5574442;31;34471;-66
2023/10/09 11:19:40;;;;;;;7.80;1.50;;;;;;;19.86;31.22;100755.37;5588126;31;33799;-66
2023/10/09 11:23:05;;;;;;;16.55;1.95;;;;;;;19.22;33.25;100822.84;5589464;31;34597;-66
2023/10/09 11:29:52;;;;;;;7.65;2.05;;;;;;;20.03;31.71;100814.94;5590381;31;33789;-67
2023/10/09 11:33:04;;;;;;;10.45;1.80;;;;;;;22.76;28.58;100758.53;5589966;31;33921;-67
2023/10/09 11:36:08;;;;;;;6.80;1.80;;;;;;;23.69;27.39;100744.66;5589613;31;35299;-67
2023/10/09 11:39:31;;;;;;;13.07;1.80;;;;;;;24.43;28.43;100812.28;5590259;31;33853;-68
2023/10/09 11:45:56;;;;;;;6.82;1.85;;;;;;;22.19;27.68;100832.34;5590243;31;34733;-67
2023/10/09 11:53:08;;;;;;;11.20;1.80;;;;;;;25.65;24.99;100806.56;5583625;31;34211;-67
2023/10/09 11:56:16;;;;;;;7.28;1.67;;;;;;;22.31;28.15;100779.13;5589950;31;34573;-67
2023/10/09 11:59:19;;;;;;;11.75;2.05;;;;;;;21.35;29.31;100763.97;5590151;31;34107;-67
2023/10/09 12:02:23;;;;;;;4.12;1.85;;;;;;;20.81;30.88;100756.78;5590198;31;34434;-67
2023/10/09 12:05:27;;;;;;;7.30;1.83;;;;;;;19.94;32.87;100745.16;5576361;31;33916;-66
2023/10/09 12:08:32;;;;;;;5.75;1.80;;;;;;;18.69;35.15;100720.06;5590613;31;34050;-66
2023/10/09 12:11:35;;;;;;;7.03;2.00;;;;;;;16.73;39.40;100711.66;5576564;31;33862;-67
2023/10/09 12:14:43;;;;;;;3.87;2.03;;;;;;;15.88;41.91;100717.25;5590142;31;33862;-66
2023/10/09 12:17:49;;;;;;;17.02;1.90;;;;;;;15.61;50.79;100716.22;5590009;31;34716;-66
2023/10/09 12:20:52;;;;;;;8.75;2.10;;;;;;;15.80;49.85;100706.69;5589947;31;34185;-66
2023/10/09 12:23:57;;;;;;;8.30;2.10;;;;;;;15.83;48.10;100715.16;5590188;31;34626;-66
2023/10/09 12:27:09;;;;;;;10.27;2.22;;;;;;;15.65;50.44;100712.13;5589993;31;33888;-66
2023/10/09 12:30:13;;;;;;;5.55;1.85;;;;;;;15.42;50.36;100700.78;5589706;31;33904;-66
2023/10/09 12:33:17;;;;;;;6.75;2.10;;;;;;;15.70;56.91;100679.47;5589425;31;34581;-66
2023/10/09 12:36:20;;;;;;;14.82;2.30;;;;;;;15.86;52.16;100680.00;5589792;31;34395;-65
2023/10/09 12:39:23;;;;;;;7.70;2.12;;;;;;;16.33;57.98;100679.28;5589796;31;33909;-65
2023/10/09 12:42:28;;;;;;;16.10;2.22;;;;;;;16.52;54.57;100686.59;5590257;31;34852;-66
2023/10/09 12:45:34;;;;;;;8.10;2.60;;;;;;;16.53;47.79;100685.56;5590167;31;33837;-67
2023/10/09 12:48:37;;;;;;;11.48;2.53;;;;;;;16.46;53.05;100686.53;5589599;31;34538;-65
2023/10/09 12:51:40;;;;;;;10.27;2.40;;;;;;;15.58;58.58;100685.34;5589748;31;34029;-65
2023/10/09 12:54:46;;;;;;;9.82;2.62;;;;;;;15.00;52.32;100701.59;5589605;31;33993;-67
2023/10/09 12:57:51;;;;;;;10.27;1.90;;;;;;;14.56;54.08;100699.00;5575723;31;34803;-66
2023/10/09 13:00:54;;;;;;;5.53;2.28;;;;;;;14.14;55.87;100695.09;5563754;31;32640;-65
2023/10/09 13:03:59;;;;;;;5.75;2.28;;;;;;;14.12;57.03;100688.31;5575922;31;33853;-66
2023/10/09 13:07:04;;;;;;;5.65;1.98;;;;;;;14.16;58.71;100684.25;5589422;31;33797;-66
2023/10/09 13:10:08;;;;;;;6.20;2.00;;;;;;;14.31;74.08;100696.59;5589524;31;34528;-66
2023/10/09 13:13:11;;;;;;;8.20;1.75;;;;;;;14.31;62.08;100690.41;5589951;31;34593;-66
2023/10/09 13:16:25;;;;;;;8.23;2.08;;;;;;;14.41;65.12;100684.84;5589933;31;33857;-66
2023/10/09 13:19:29;;;;;;;6.30;1.95;;;;;;;14.32;65.47;100686.75;5589521;31;33759;-66
2023/10/09 13:22:31;;;;;;;10.23;2.25;;;;;;;13.92;83.58;100680.84;5575879;31;34741;-66
2023/10/09 13:25:39;;;;;;;7.72;2.00;;;;;;;13.42;81.83;100673.44;5589474;31;34616;-66
2023/10/09 13:28:45;;;;;;;7.78;1.90;;;;;;;13.01;88.71;100675.56;5575452;31;33964;-66
2023/10/09 13:31:51;;;;;;;4.50;1.92;;;;;;;12.94;100.00;100676.41;5589510;31;33198;-67
2023/10/09 13:34:55;;;;;;;7.90;2.10;;;;;;;12.73;100.00;100669.03;5589866;31;33987;-68
2023/10/09 13:37:58;;;;;;;6.85;2.30;;;;;;;12.54;100.00;100666.81;5589225;31;34672;-68
2023/10/09 13:41:01;;;;;;;6.12;2.20;;;;;;;12.46;100.00;100659.69;5589306;31;33898;-68
2023/10/09 13:44:04;;;;;;;8.73;3.28;;;;;;;12.45;100.00;100667.84;5588320;31;34472;-69
2023/10/09 13:47:18;;;;;;;7.00;2.25;;;;;;;12.24;100.00;100657.81;5589207;31;33994;-67
2023/10/09 13:50:31;;;;;;;10.32;2.47;;;;;;;12.37;100.00;100674.06;5589051;31;34484;-69
2023/10/09 13:53:36;;;;;;;6.00;2.40;;;;;;;12.12;100.00;100667.97;5575631;31;34041;-69
2023/10/09 13:56:39;;;;;;;6.35;2.10;;;;;;;12.02;100.00;100672.66;5588882;31;33991;-68
2023/10/09 13:59:51;;;;;;;7.10;2.12;;;;;;;12.03;100.00;100668.16;5588801;31;33772;-69
2023/10/09 14:02:55;;;;;;;8.23;2.50;;;;;;;11.91;100.00;100659.69;5588908;31;33809;-68
2023/10/09 14:05:58;;;;;;;5.75;2.10;;;;;;;11.95;100.00;100641.59;5588953;31;33770;-68
2023/10/09 14:09:08;;;;;;;13.73;3.03;;;;;;;11.91;100.00;100630.47;5589385;31;33493;-69
2023/10/09 14:12:14;;;;;;;10.70;3.35;;;;;;;12.14;100.00;100611.97;5589343;31;34512;-69
2023/10/09 14:15:17;;;;;;;12.48;3.00;;;;;;;12.01;100.00;100615.16;5588910;31;34619;-69
2023/10/09 14:18:21;;;;;;;6.15;2.60;;;;;;;11.97;100.00;100613.84;5589168;31;33775;-69
2023/10/09 14:21:25;;;;;;;9.98;2.70;;;;;;;12.03;100.00;100613.16;5588707;31;32373;-69
2023/10/09 14:24:32;;;;;;;11.90;3.00;;;;;;;11.84;100.00;100596.78;5588628;31;34536;-69
2023/10/09 14:27:35;;;;;;;8.25;3.50;;;;;;;11.87;100.00;100597.25;5588640;31;33918;-69
2023/10/09 14:30:42;;;;;;;7.78;3.25;;;;;;;11.96;100.00;100608.69;5588629;31;33865;-69
2023/10/09 14:33:51;;;;;;;9.30;3.20;;;;;;;11.91;100.00;100605.72;5574935;31;33876;-68
2023/10/09 14:36:54;;;;;;;;;;;;;;;11.86;100.00;100624.03;5588980;31;33961;-68
2023/10/09 14:39:58;;;;;;;10.38;3.40;;;;;;;11.69;100.00;100625.84;5588158;31;34919;-68
2023/10/09 14:43:03;;;;;;;8.65;3.20;;;;;;;11.59;100.00;100634.00;5588492;31;34179;-68
2023/10/09 14:46:10;;;;;;;8.27;3.00;;;;;;;11.66;100.00;100631.50;5588149;31;33798;-68
2023/10/09 14:49:14;;;;;;;10.77;3.28;;;;;;;11.59;100.00;100631.34;5588607;31;34616;-68
2023/10/09 14:52:17;;;;;;;5.30;2.90;;;;;;;11.52;100.00;100629.53;5587978;31;33840;-68
2023/10/09 14:55:28;;;;;;;6.43;3.20;;;;;;;11.50;100.00;100626.19;5574217;31;34029;-67
2023/10/09 14:58:34;;;;;;;7.05;3.22;;;;;;;11.49;100.00;100609.41;5590263;31;33712;-70
2023/10/09 15:01:38;;;;;;;10.70;3.20;;;;;;;11.48;100.00;100622.88;5577372;31;33768;-68
2023/10/09 15:04:41;;;;;;;8.60;3.05;;;;;;;11.61;100.00;100618.72;5590531;31;33818;-67
2023/10/09 15:07:45;;;;;;;17.02;3.60;;;;;;;11.44;100.00;100624.19;5590443;31;34078;-68
2023/10/09 15:10:55;;;;;;;11.73;3.62;;;;;;;11.26;100.00;100613.75;5590400;31;33721;-67
2023/10/09 15:13:59;;;;;;;10.30;3.85;;;;;;;11.37;100.00;100615.25;5590421;31;34485;-67
2023/10/09 15:17:02;;;;;;;10.43;3.60;;;;;;;11.30;100.00;100618.56;5590302;31;33753;-67
2023/10/09 15:20:13;;;;;;;14.15;3.75;;;;;;;11.33;100.00;100602.28;5590268;31;35154;-67
2023/10/09 15:23:16;;;;;;;7.70;3.70;;;;;;;11.23;100.00;100606.94;5590457;31;33753;-67
2023/10/09 15:26:20;;;;;;;9.65;3.40;;;;;;;11.24;100.00;100591.84;5590433;31;34766;-67
2023/10/09 15:29:28;;;;;;;6.35;3.33;;;;;;;11.17;100.00;100596.19;5576293;31;33910;-68
2023/10/09 15:32:30;;;;;;;7.95;3.50;;;;;;;11.20;100.00;100612.59;5576482;31;34022;-68
2023/10/09 15:35:40;;;;;;;10.32;3.25;;;;;;;11.24;100.00;100618.41;5590144;31;34809;-68
2023/10/09 15:38:43;;;;;;;10.07;3.45;;;;;;;11.17;100.00;100602.31;5590510;31;34520;-68
2023/10/09 15:41:46;;;;;;;8.90;3.50;;;;;;;11.01;100.00;100594.34;5590083;31;33349;-68
2023/10/09 15:44:54;;;;;;;15.57;3.60;;;;;;;10.85;100.00;100578.41;5590466;31;33905;-68
2023/10/09 15:48:04;;;;;;;15.35;3.90;;;;;;;10.93;100.00;100582.91;5589786;31;34459;-68
2023/10/09 15:51:14;;;;;;;9.75;3.90;;;;;;;10.93;100.00;100574.94;5590244;31;33925;-69
2023/10/09 15:54:19;;;;;;;8.68;3.72;;;;;;;11.04;100.00;100587.84;5590632;31;34504;-68
2023/10/09 15:57:22;;;;;;;11.43;4.10;;;;;;;11.06;100.00;100585.87;5575922;31;34025;-70
2023/10/09 16:00:28;;;;;;;8.85;3.75;;;;;;;11.15;100.00;100568.94;5576364;31;34197;-68